sensor_id;sensor_type;location;lat;lon;timestamp;temperature;humidity
13086;DHT22;6609;49.882;8.664;2023-04-22T00:13:33;13.40;72.70
13086;DHT22;6609;49.882;8.664;2023-04-22T00:35:40;13.20;75.20
13086;DHT22;6609;49.882;8.664;2023-04-22T00:47:56;13.00;76.00
13086;DHT22;6609;49.882;8.664;2023-04-22T01:02:40;12.90;76.30
13086;DHT22;6609;49.882;8.664;2023-04-22T01:19:52;12.90;77.00
13086;DHT22;6609;49.882;8.664;2023-04-22T01:24:48;12.90;77.00
13086;DHT22;6609;49.882;8.664;2023-04-22T01:37:05;12.80;77.10
13086;DHT22;6609;49.882;8.664;2023-04-22T01:44:28;12.70;77.90
13086;DHT22;6609;49.882;8.664;2023-04-22T01:56:49;12.70;77.50
13086;DHT22;6609;49.882;8.664;2023-04-22T02:01:44;12.60;78.20
13086;DHT22;6609;49.882;8.664;2023-04-22T02:06:38;12.70;78.30
13086;DHT22;6609;49.882;8.664;2023-04-22T02:09:05;12.70;78.20
13086;DHT22;6609;49.882;8.664;2023-04-22T02:16:27;12.70;78.00
13086;DHT22;6609;49.882;8.664;2023-04-22T02:26:15;12.80;78.10
13086;DHT22;6609;49.882;8.664;2023-04-22T02:28:41;12.70;78.20
13086;DHT22;6609;49.882;8.664;2023-04-22T02:33:36;12.70;78.40
13086;DHT22;6609;49.882;8.664;2023-04-22T03:32:31;12.70;78.80
13086;DHT22;6609;49.882;8.664;2023-04-22T04:24:05;12.50;79.00
13086;DHT22;6609;49.882;8.664;2023-04-22T04:43:47;12.50;79.30
13086;DHT22;6609;49.882;8.664;2023-04-22T04:51:12;12.50;78.80
13086;DHT22;6609;49.882;8.664;2023-04-22T04:56:06;12.60;78.80
13086;DHT22;6609;49.882;8.664;2023-04-22T05:05:54;12.60;78.80
13086;DHT22;6609;49.882;8.664;2023-04-22T05:08:22;12.70;78.50
13086;DHT22;6609;49.882;8.664;2023-04-22T05:13:16;12.80;78.50
13086;DHT22;6609;49.882;8.664;2023-04-22T05:15:43;12.70;78.30
13086;DHT22;6609;49.882;8.664;2023-04-22T05:32:53;12.60;78.70
13086;DHT22;6609;49.882;8.664;2023-04-22T06:17:04;13.00;81.00
13086;DHT22;6609;49.882;8.664;2023-04-22T07:11:07;15.30;73.90
13086;DHT22;6609;49.882;8.664;2023-04-22T07:23:22;16.30;69.30
13086;DHT22;6609;49.882;8.664;2023-04-22T07:57:46;18.80;59.30
13086;DHT22;6609;49.882;8.664;2023-04-22T08:07:36;18.60;59.70
13086;DHT22;6609;49.882;8.664;2023-04-22T08:12:30;18.80;60.10
13086;DHT22;6609;49.882;8.664;2023-04-22T08:19:52;19.80;55.90
13086;DHT22;6609;49.882;8.664;2023-04-22T08:22:19;20.00;54.60
13086;DHT22;6609;49.882;8.664;2023-04-22T08:27:13;20.30;53.80
13086;DHT22;6609;49.882;8.664;2023-04-22T08:32:06;20.60;50.90
13086;DHT22;6609;49.882;8.664;2023-04-22T08:34:34;20.80;50.80
13086;DHT22;6609;49.882;8.664;2023-04-22T08:37:02;21.10;51.10
13086;DHT22;6609;49.882;8.664;2023-04-22T08:44:23;21.70;49.70
13086;DHT22;6609;49.882;8.664;2023-04-22T08:46:51;22.00;48.90
13086;DHT22;6609;49.882;8.664;2023-04-22T08:51:48;22.20;47.70
13086;DHT22;6609;49.882;8.664;2023-04-22T08:59:10;22.40;47.20
13086;DHT22;6609;49.882;8.664;2023-04-22T09:01:37;22.30;46.70
13086;DHT22;6609;49.882;8.664;2023-04-22T09:06:32;22.10;47.30
13086;DHT22;6609;49.882;8.664;2023-04-22T09:11:28;21.80;48.20
13086;DHT22;6609;49.882;8.664;2023-04-22T09:16:22;21.60;48.70
13086;DHT22;6609;49.882;8.664;2023-04-22T09:21:26;21.40;48.00
13086;DHT22;6609;49.882;8.664;2023-04-22T09:23:54;21.40;48.80
13086;DHT22;6609;49.882;8.664;2023-04-22T09:26:22;21.30;48.20
13086;DHT22;6609;49.882;8.664;2023-04-22T09:28:50;21.30;48.30
13086;DHT22;6609;49.882;8.664;2023-04-22T09:31:17;21.40;47.80
13086;DHT22;6609;49.882;8.664;2023-04-22T09:33:48;21.50;48.40
13086;DHT22;6609;49.882;8.664;2023-04-22T09:36:15;21.80;47.40
13086;DHT22;6609;49.882;8.664;2023-04-22T09:38:52;22.00;47.10
13086;DHT22;6609;49.882;8.664;2023-04-22T09:41:25;22.20;46.30
13086;DHT22;6609;49.882;8.664;2023-04-22T09:43:54;22.20;46.60
13086;DHT22;6609;49.882;8.664;2023-04-22T09:46:21;22.30;47.70
13086;DHT22;6609;49.882;8.664;2023-04-22T09:48:49;22.30;47.20
13086;DHT22;6609;49.882;8.664;2023-04-22T09:51:16;22.40;48.00
13086;DHT22;6609;49.882;8.664;2023-04-22T09:53:44;22.30;46.70
13086;DHT22;6609;49.882;8.664;2023-04-22T09:56:12;22.50;47.00
13086;DHT22;6609;49.882;8.664;2023-04-22T09:58:39;22.90;46.80
13086;DHT22;6609;49.882;8.664;2023-04-22T10:01:08;23.30;44.80
13086;DHT22;6609;49.882;8.664;2023-04-22T10:03:35;23.70;42.80
13086;DHT22;6609;49.882;8.664;2023-04-22T10:06:02;24.30;41.60
13086;DHT22;6609;49.882;8.664;2023-04-22T10:08:29;24.90;38.30
13086;DHT22;6609;49.882;8.664;2023-04-22T10:10:57;25.40;35.80
13086;DHT22;6609;49.882;8.664;2023-04-22T10:13:25;25.80;32.20
13086;DHT22;6609;49.882;8.664;2023-04-22T10:15:54;26.30;29.70
13086;DHT22;6609;49.882;8.664;2023-04-22T10:18:23;26.40;29.00
13086;DHT22;6609;49.882;8.664;2023-04-22T10:20:52;26.80;26.10
13086;DHT22;6609;49.882;8.664;2023-04-22T10:23:22;27.10;26.50
13086;DHT22;6609;49.882;8.664;2023-04-22T10:25:52;27.50;27.00
13086;DHT22;6609;49.882;8.664;2023-04-22T10:28:20;27.90;24.60
13086;DHT22;6609;49.882;8.664;2023-04-22T10:30:49;28.10;22.20
13086;DHT22;6609;49.882;8.664;2023-04-22T10:33:37;28.40;22.60
13086;DHT22;6609;49.882;8.664;2023-04-22T10:36:06;28.60;21.80
13086;DHT22;6609;49.882;8.664;2023-04-22T10:38:33;28.90;22.60
13086;DHT22;6609;49.882;8.664;2023-04-22T10:41:00;29.10;20.40
13086;DHT22;6609;49.882;8.664;2023-04-22T10:43:40;28.90;19.70
13086;DHT22;6609;49.882;8.664;2023-04-22T10:49:17;29.50;20.80
13086;DHT22;6609;49.882;8.664;2023-04-22T10:51:46;29.80;18.20
13086;DHT22;6609;49.882;8.664;2023-04-22T10:54:56;29.70;17.90
13086;DHT22;6609;49.882;8.664;2023-04-22T10:57:31;29.70;16.80
13086;DHT22;6609;49.882;8.664;2023-04-22T11:00:20;29.50;14.90
13086;DHT22;6609;49.882;8.664;2023-04-22T11:02:52;29.30;17.80
13086;DHT22;6609;49.882;8.664;2023-04-22T11:05:21;29.40;16.40
13086;DHT22;6609;49.882;8.664;2023-04-22T11:07:49;29.40;18.90
13086;DHT22;6609;49.882;8.664;2023-04-22T13:04:26;24.80;21.90
13086;DHT22;6609;49.882;8.664;2023-04-22T13:06:53;24.80;22.50
13086;DHT22;6609;49.882;8.664;2023-04-22T13:09:22;24.60;23.30
13086;DHT22;6609;49.882;8.664;2023-04-22T13:11:50;24.50;24.20
13086;DHT22;6609;49.882;8.664;2023-04-22T13:14:17;24.40;24.40
13086;DHT22;6609;49.882;8.664;2023-04-22T14:20:18;21.40;27.70
13086;DHT22;6609;49.882;8.664;2023-04-22T14:22:46;21.30;28.80
13086;DHT22;6609;49.882;8.664;2023-04-22T14:25:12;21.20;29.70
13086;DHT22;6609;49.882;8.664;2023-04-22T14:27:40;21.20;29.40
13086;DHT22;6609;49.882;8.664;2023-04-22T14:30:07;21.20;30.20
13086;DHT22;6609;49.882;8.664;2023-04-22T14:32:34;21.20;30.00
13086;DHT22;6609;49.882;8.664;2023-04-22T14:35:01;21.20;30.00
13086;DHT22;6609;49.882;8.664;2023-04-22T14:37:29;21.20;30.30
13086;DHT22;6609;49.882;8.664;2023-04-22T14:39:57;21.20;29.90
13086;DHT22;6609;49.882;8.664;2023-04-22T14:42:24;21.20;30.10
13086;DHT22;6609;49.882;8.664;2023-04-22T14:44:50;21.10;30.50
13086;DHT22;6609;49.882;8.664;2023-04-22T14:47:17;21.00;30.70
13086;DHT22;6609;49.882;8.664;2023-04-22T14:49:44;21.00;30.90
13086;DHT22;6609;49.882;8.664;2023-04-22T14:52:10;21.00;31.70
13086;DHT22;6609;49.882;8.664;2023-04-22T14:54:38;20.90;31.40
13086;DHT22;6609;49.882;8.664;2023-04-22T14:59:32;20.90;31.80
13086;DHT22;6609;49.882;8.664;2023-04-22T15:01:59;20.90;33.30
13086;DHT22;6609;49.882;8.664;2023-04-22T15:04:26;20.90;31.30
13086;DHT22;6609;49.882;8.664;2023-04-22T15:06:52;20.80;31.10
13086;DHT22;6609;49.882;8.664;2023-04-22T15:11:51;20.90;31.30
13086;DHT22;6609;49.882;8.664;2023-04-22T15:16:46;20.90;31.20
13086;DHT22;6609;49.882;8.664;2023-04-22T15:19:13;20.90;30.80
13086;DHT22;6609;49.882;8.664;2023-04-22T15:24:06;20.90;31.00
13086;DHT22;6609;49.882;8.664;2023-04-22T15:29:01;20.70;31.30
13086;DHT22;6609;49.882;8.664;2023-04-22T15:31:28;20.70;31.60
13086;DHT22;6609;49.882;8.664;2023-04-22T15:33:55;20.70;32.20
13086;DHT22;6609;49.882;8.664;2023-04-22T15:36:21;20.60;31.80
13086;DHT22;6609;49.882;8.664;2023-04-22T15:38:52;20.60;32.00
13086;DHT22;6609;49.882;8.664;2023-04-22T15:46:17;20.40;31.90
13086;DHT22;6609;49.882;8.664;2023-04-22T15:48:44;20.40;32.70
13086;DHT22;6609;49.882;8.664;2023-04-22T15:51:12;20.30;32.30
13086;DHT22;6609;49.882;8.664;2023-04-22T15:56:05;20.40;32.60
13086;DHT22;6609;49.882;8.664;2023-04-22T16:00:59;20.30;32.20
13086;DHT22;6609;49.882;8.664;2023-04-22T16:03:27;20.30;32.20
13086;DHT22;6609;49.882;8.664;2023-04-22T16:05:54;20.30;32.70
13086;DHT22;6609;49.882;8.664;2023-04-22T16:08:21;20.30;32.50
13086;DHT22;6609;49.882;8.664;2023-04-22T16:10:48;20.20;32.40
13086;DHT22;6609;49.882;8.664;2023-04-22T16:13:14;20.30;32.70
13086;DHT22;6609;49.882;8.664;2023-04-22T16:15:41;20.30;32.60
13086;DHT22;6609;49.882;8.664;2023-04-22T16:18:08;20.20;32.60
13086;DHT22;6609;49.882;8.664;2023-04-22T16:20:36;20.20;32.70
13086;DHT22;6609;49.882;8.664;2023-04-22T16:23:03;20.20;32.60
13086;DHT22;6609;49.882;8.664;2023-04-22T16:27:57;20.10;32.70
13086;DHT22;6609;49.882;8.664;2023-04-22T16:30:24;20.20;32.40
13086;DHT22;6609;49.882;8.664;2023-04-22T16:32:51;20.20;32.40
13086;DHT22;6609;49.882;8.664;2023-04-22T16:35:17;20.30;33.00
13086;DHT22;6609;49.882;8.664;2023-04-22T16:37:45;20.30;32.30
13086;DHT22;6609;49.882;8.664;2023-04-22T16:45:07;20.30;32.60
13086;DHT22;6609;49.882;8.664;2023-04-22T16:47:34;20.30;32.80
13086;DHT22;6609;49.882;8.664;2023-04-22T16:52:28;20.20;32.70
13086;DHT22;6609;49.882;8.664;2023-04-22T16:54:56;20.20;33.00
13086;DHT22;6609;49.882;8.664;2023-04-22T16:59:51;20.10;33.40
13086;DHT22;6609;49.882;8.664;2023-04-22T17:02:18;20.10;33.80
13086;DHT22;6609;49.882;8.664;2023-04-22T17:07:12;20.00;33.40
13086;DHT22;6609;49.882;8.664;2023-04-22T17:09:38;20.00;34.00
13086;DHT22;6609;49.882;8.664;2023-04-22T17:12:06;19.90;33.70
13086;DHT22;6609;49.882;8.664;2023-04-22T17:17:00;19.90;34.40
13086;DHT22;6609;49.882;8.664;2023-04-22T17:19:27;19.90;34.50
13086;DHT22;6609;49.882;8.664;2023-04-22T17:21:53;19.90;34.20
13086;DHT22;6609;49.882;8.664;2023-04-22T17:26:48;19.90;34.20
13086;DHT22;6609;49.882;8.664;2023-04-22T17:29:16;19.90;34.20
13086;DHT22;6609;49.882;8.664;2023-04-22T17:34:13;19.80;35.10
13086;DHT22;6609;49.882;8.664;2023-04-22T17:36:39;19.80;34.80
13086;DHT22;6609;49.882;8.664;2023-04-22T17:39:06;19.80;34.60
13086;DHT22;6609;49.882;8.664;2023-04-22T17:41:34;19.80;34.50
13086;DHT22;6609;49.882;8.664;2023-04-22T17:44:01;19.80;34.30
13086;DHT22;6609;49.882;8.664;2023-04-22T17:46:29;19.80;34.90
13086;DHT22;6609;49.882;8.664;2023-04-22T17:48:56;19.80;34.80
13086;DHT22;6609;49.882;8.664;2023-04-22T17:51:22;19.70;34.60
13086;DHT22;6609;49.882;8.664;2023-04-22T17:53:49;19.60;34.50
13086;DHT22;6609;49.882;8.664;2023-04-22T17:56:17;19.50;34.30
13086;DHT22;6609;49.882;8.664;2023-04-22T17:58:44;19.50;34.50
13086;DHT22;6609;49.882;8.664;2023-04-22T18:03:39;19.50;34.60
13086;DHT22;6609;49.882;8.664;2023-04-22T18:06:07;19.50;34.80
13086;DHT22;6609;49.882;8.664;2023-04-22T18:08:33;19.40;35.10
13086;DHT22;6609;49.882;8.664;2023-04-22T18:11:00;19.40;35.10
13086;DHT22;6609;49.882;8.664;2023-04-22T18:15:56;19.30;35.60
13086;DHT22;6609;49.882;8.664;2023-04-22T18:20:52;19.30;36.20
13086;DHT22;6609;49.882;8.664;2023-04-22T18:23:19;19.20;36.10
13086;DHT22;6609;49.882;8.664;2023-04-22T18:25:45;19.20;36.10
13086;DHT22;6609;49.882;8.664;2023-04-22T18:33:08;19.00;36.60
13086;DHT22;6609;49.882;8.664;2023-04-22T18:35:35;19.00;37.00
13086;DHT22;6609;49.882;8.664;2023-04-22T18:38:03;18.90;37.50
13086;DHT22;6609;49.882;8.664;2023-04-22T18:42:57;18.80;39.00
13086;DHT22;6609;49.882;8.664;2023-04-22T19:30:46;17.60;41.80
13086;DHT22;6609;49.882;8.664;2023-04-22T19:33:13;17.60;44.20
13086;DHT22;6609;49.882;8.664;2023-04-22T19:35:40;17.60;45.80
13086;DHT22;6609;49.882;8.664;2023-04-22T19:38:06;17.60;46.50
13086;DHT22;6609;49.882;8.664;2023-04-22T19:40:34;17.60;47.60
13086;DHT22;6609;49.882;8.664;2023-04-22T19:43:01;17.60;48.70
13086;DHT22;6609;49.882;8.664;2023-04-22T19:48:00;17.60;49.30
13086;DHT22;6609;49.882;8.664;2023-04-22T19:50:27;17.50;50.60
13086;DHT22;6609;49.882;8.664;2023-04-22T19:52:59;17.50;50.90
13086;DHT22;6609;49.882;8.664;2023-04-22T19:55:28;17.50;52.00
13086;DHT22;6609;49.882;8.664;2023-04-22T19:57:55;17.60;52.40
13086;DHT22;6609;49.882;8.664;2023-04-22T20:00:23;17.50;52.90
13086;DHT22;6609;49.882;8.664;2023-04-22T20:02:50;17.50;53.60
13086;DHT22;6609;49.882;8.664;2023-04-22T20:05:19;17.50;53.70
13086;DHT22;6609;49.882;8.664;2023-04-22T20:07:48;17.50;53.90
13086;DHT22;6609;49.882;8.664;2023-04-22T20:10:15;17.40;53.60
13086;DHT22;6609;49.882;8.664;2023-04-22T20:12:43;17.40;53.70
13086;DHT22;6609;49.882;8.664;2023-04-22T20:15:10;17.40;53.90
13086;DHT22;6609;49.882;8.664;2023-04-22T20:17:37;17.30;54.00
13086;DHT22;6609;49.882;8.664;2023-04-22T20:20:05;17.20;54.30
13086;DHT22;6609;49.882;8.664;2023-04-22T20:22:39;17.10;54.40
13086;DHT22;6609;49.882;8.664;2023-04-22T20:25:06;17.10;55.10
13086;DHT22;6609;49.882;8.664;2023-04-22T20:27:34;17.00;55.70
13086;DHT22;6609;49.882;8.664;2023-04-22T20:30:01;17.00;56.40
13086;DHT22;6609;49.882;8.664;2023-04-22T20:32:30;17.00;56.90
13086;DHT22;6609;49.882;8.664;2023-04-22T20:34:57;17.00;57.10
13086;DHT22;6609;49.882;8.664;2023-04-22T20:37:25;16.80;56.60
13086;DHT22;6609;49.882;8.664;2023-04-22T20:39:54;16.80;57.60
13086;DHT22;6609;49.882;8.664;2023-04-22T20:42:21;16.70;58.70
13086;DHT22;6609;49.882;8.664;2023-04-22T20:44:50;16.70;59.80
13086;DHT22;6609;49.882;8.664;2023-04-22T20:49:44;16.40;61.90
13086;DHT22;6609;49.882;8.664;2023-04-22T20:52:11;16.40;63.00
13086;DHT22;6609;49.882;8.664;2023-04-22T20:54:38;16.20;63.70
13086;DHT22;6609;49.882;8.664;2023-04-22T20:57:06;16.20;64.50
13086;DHT22;6609;49.882;8.664;2023-04-22T20:59:34;16.20;65.50
13086;DHT22;6609;49.882;8.664;2023-04-22T21:02:02;16.10;66.60
13086;DHT22;6609;49.882;8.664;2023-04-22T21:04:31;16.10;67.40
13086;DHT22;6609;49.882;8.664;2023-04-22T21:06:59;16.10;68.10
13086;DHT22;6609;49.882;8.664;2023-04-22T21:09:28;16.00;68.60
13086;DHT22;6609;49.882;8.664;2023-04-22T21:11:55;16.00;69.60
13086;DHT22;6609;49.882;8.664;2023-04-22T21:14:24;16.10;69.90
13086;DHT22;6609;49.882;8.664;2023-04-22T21:16:57;16.00;70.20
13086;DHT22;6609;49.882;8.664;2023-04-22T21:19:27;16.10;71.00
13086;DHT22;6609;49.882;8.664;2023-04-22T21:21:56;16.00;71.20
13086;DHT22;6609;49.882;8.664;2023-04-22T21:24:24;16.00;72.20
13086;DHT22;6609;49.882;8.664;2023-04-22T21:26:51;16.00;72.80
13086;DHT22;6609;49.882;8.664;2023-04-22T21:29:19;16.00;72.80
13086;DHT22;6609;49.882;8.664;2023-04-22T21:31:47;16.00;73.10
13086;DHT22;6609;49.882;8.664;2023-04-22T21:34:14;15.90;73.20
13086;DHT22;6609;49.882;8.664;2023-04-22T21:36:41;15.90;73.50
13086;DHT22;6609;49.882;8.664;2023-04-22T21:39:07;15.80;73.90
13086;DHT22;6609;49.882;8.664;2023-04-22T21:41:34;15.80;74.30
13086;DHT22;6609;49.882;8.664;2023-04-22T21:44:01;15.70;74.90
13086;DHT22;6609;49.882;8.664;2023-04-22T21:46:28;15.60;75.40
13086;DHT22;6609;49.882;8.664;2023-04-22T21:48:56;15.70;75.90
13086;DHT22;6609;49.882;8.664;2023-04-22T21:51:23;15.60;76.30
13086;DHT22;6609;49.882;8.664;2023-04-22T21:53:50;15.60;76.80
13086;DHT22;6609;49.882;8.664;2023-04-22T21:56:16;15.40;78.00
13086;DHT22;6609;49.882;8.664;2023-04-22T21:58:43;15.50;77.30
13086;DHT22;6609;49.882;8.664;2023-04-22T22:01:10;15.50;77.90
13086;DHT22;6609;49.882;8.664;2023-04-22T22:03:37;15.50;77.70
13086;DHT22;6609;49.882;8.664;2023-04-22T22:06:05;15.50;77.70
13086;DHT22;6609;49.882;8.664;2023-04-22T22:08:32;15.50;77.80
13086;DHT22;6609;49.882;8.664;2023-04-22T22:10:58;15.50;77.80
13086;DHT22;6609;49.882;8.664;2023-04-22T22:13:25;15.50;78.10
13086;DHT22;6609;49.882;8.664;2023-04-22T22:15:52;15.50;77.80
13086;DHT22;6609;49.882;8.664;2023-04-22T22:18:21;15.50;78.60
13086;DHT22;6609;49.882;8.664;2023-04-22T22:20:48;15.40;78.40
13086;DHT22;6609;49.882;8.664;2023-04-22T22:23:16;15.40;79.20
13086;DHT22;6609;49.882;8.664;2023-04-22T22:25:46;15.30;80.10
13086;DHT22;6609;49.882;8.664;2023-04-22T22:28:12;15.30;80.50
13086;DHT22;6609;49.882;8.664;2023-04-22T22:30:39;15.30;80.70
13086;DHT22;6609;49.882;8.664;2023-04-22T22:33:06;15.30;80.90
13086;DHT22;6609;49.882;8.664;2023-04-22T22:35:32;15.30;81.50
13086;DHT22;6609;49.882;8.664;2023-04-22T22:38:00;15.20;81.80
13086;DHT22;6609;49.882;8.664;2023-04-22T22:40:28;15.10;82.30
13086;DHT22;6609;49.882;8.664;2023-04-22T22:42:55;15.20;83.00
13086;DHT22;6609;49.882;8.664;2023-04-22T22:45:21;15.20;83.50
13086;DHT22;6609;49.882;8.664;2023-04-22T22:50:15;15.10;84.10
13086;DHT22;6609;49.882;8.664;2023-04-22T22:52:42;15.10;85.00
13086;DHT22;6609;49.882;8.664;2023-04-22T22:55:08;15.20;84.60
13086;DHT22;6609;49.882;8.664;2023-04-22T22:57:36;15.10;84.70
13086;DHT22;6609;49.882;8.664;2023-04-22T23:00:04;15.10;85.30
13086;DHT22;6609;49.882;8.664;2023-04-22T23:02:33;15.00;85.30
13086;DHT22;6609;49.882;8.664;2023-04-22T23:05:00;15.00;85.80
13086;DHT22;6609;49.882;8.664;2023-04-22T23:07:27;15.00;86.40
13086;DHT22;6609;49.882;8.664;2023-04-22T23:09:53;15.00;86.40
13086;DHT22;6609;49.882;8.664;2023-04-22T23:12:20;15.00;86.70
13086;DHT22;6609;49.882;8.664;2023-04-22T23:14:48;15.00;86.90
13086;DHT22;6609;49.882;8.664;2023-04-22T23:17:15;15.00;87.60
13086;DHT22;6609;49.882;8.664;2023-04-22T23:19:43;14.90;87.50
13086;DHT22;6609;49.882;8.664;2023-04-22T23:22:10;14.90;87.80
13086;DHT22;6609;49.882;8.664;2023-04-22T23:24:37;14.90;87.80
13086;DHT22;6609;49.882;8.664;2023-04-22T23:27:04;14.90;88.40
13086;DHT22;6609;49.882;8.664;2023-04-22T23:29:32;14.80;88.30
13086;DHT22;6609;49.882;8.664;2023-04-22T23:32:02;14.80;88.40
13086;DHT22;6609;49.882;8.664;2023-04-22T23:34:31;14.80;89.00
13086;DHT22;6609;49.882;8.664;2023-04-22T23:37:01;14.80;89.40
13086;DHT22;6609;49.882;8.664;2023-04-22T23:39:29;14.70;89.40
13086;DHT22;6609;49.882;8.664;2023-04-22T23:41:56;14.70;89.60
13086;DHT22;6609;49.882;8.664;2023-04-22T23:44:22;14.70;90.20
13086;DHT22;6609;49.882;8.664;2023-04-22T23:46:49;14.70;90.40
13086;DHT22;6609;49.882;8.664;2023-04-22T23:49:18;14.70;90.40
13086;DHT22;6609;49.882;8.664;2023-04-22T23:51:44;14.80;90.60
13086;DHT22;6609;49.882;8.664;2023-04-22T23:54:11;14.80;90.60
13086;DHT22;6609;49.882;8.664;2023-04-22T23:56:40;14.70;90.50
13086;DHT22;6609;49.882;8.664;2023-04-22T23:59:07;14.80;90.50
